sensor_id;sensor_type;location;lat;lon;timestamp;pressure;altitude;pressure_sealevel;temperature;humidity
72855;BME280;60991;51.278;22.550;2023-03-29T00:01:14;99354.88;;;-0.22;59.35
72855;BME280;60991;51.278;22.550;2023-03-29T00:02:44;99359.06;;;-0.13;58.90
72855;BME280;60991;51.278;22.550;2023-03-29T00:04:14;99356.28;;;-0.12;58.92
72855;BME280;60991;51.278;22.550;2023-03-29T00:05:45;99359.88;;;-0.13;58.78
72855;BME280;60991;51.278;22.550;2023-03-29T00:07:15;99355.38;;;0.04;58.69
72855;BME280;60991;51.278;22.550;2023-03-29T00:08:45;99353.31;;;-0.01;58.95
72855;BME280;60991;51.278;22.550;2023-03-29T00:10:15;99361.13;;;-0.01;58.63
72855;BME280;60991;51.278;22.550;2023-03-29T00:11:45;99357.31;;;0.10;58.60
72855;BME280;60991;51.278;22.550;2023-03-29T00:13:16;99355.22;;;0.06;58.33
72855;BME280;60991;51.278;22.550;2023-03-29T00:14:47;99353.31;;;-0.01;58.23
72855;BME280;60991;51.278;22.550;2023-03-29T00:16:17;99363.56;;;0.01;57.86
72855;BME280;60991;51.278;22.550;2023-03-29T00:17:48;99362.41;;;0.04;58.47
72855;BME280;60991;51.278;22.550;2023-03-29T00:19:18;99361.13;;;-0.01;58.46
72855;BME280;60991;51.278;22.550;2023-03-29T00:20:55;99355.56;;;0.03;58.59
72855;BME280;60991;51.278;22.550;2023-03-29T00:22:25;99357.88;;;-0.03;58.68
72855;BME280;60991;51.278;22.550;2023-03-29T00:23:56;99359.84;;;-0.05;58.30
72855;BME280;60991;51.278;22.550;2023-03-29T00:25:27;99363.13;;;-0.11;58.62
72855;BME280;60991;51.278;22.550;2023-03-29T00:26:57;99349.44;;;-0.13;58.36
72855;BME280;60991;51.278;22.550;2023-03-29T00:28:27;99361.97;;;-0.08;58.45
72855;BME280;60991;51.278;22.550;2023-03-29T00:29:58;99357.75;;;-0.09;58.62
72855;BME280;60991;51.278;22.550;2023-03-29T00:31:29;99353.16;;;-0.07;58.31
72855;BME280;60991;51.278;22.550;2023-03-29T00:32:59;99350.38;;;-0.06;58.15
72855;BME280;60991;51.278;22.550;2023-03-29T00:34:29;99356.19;;;0.05;58.07
72855;BME280;60991;51.278;22.550;2023-03-29T00:35:59;99358.63;;;0.06;57.80
72855;BME280;60991;51.278;22.550;2023-03-29T00:37:30;99353.97;;;-0.07;57.72
72855;BME280;60991;51.278;22.550;2023-03-29T00:39:00;99351.19;;;-0.05;57.94
72855;BME280;60991;51.278;22.550;2023-03-29T00:40:31;99356.44;;;-0.05;57.83
72855;BME280;60991;51.278;22.550;2023-03-29T00:42:02;99338.97;;;-0.05;57.73
72855;BME280;60991;51.278;22.550;2023-03-29T00:43:56;99356.84;;;0.07;56.94
72855;BME280;60991;51.278;22.550;2023-03-29T00:45:27;99343.22;;;-0.04;57.18
72855;BME280;60991;51.278;22.550;2023-03-29T00:46:58;99353.91;;;0.10;57.00
72855;BME280;60991;51.278;22.550;2023-03-29T00:48:28;99349.31;;;0.12;56.75
72855;BME280;60991;51.278;22.550;2023-03-29T00:50:03;99355.19;;;0.14;56.69
72855;BME280;60991;51.278;22.550;2023-03-29T00:51:37;99356.19;;;0.13;56.40
72855;BME280;60991;51.278;22.550;2023-03-29T00:53:30;99350.81;;;0.06;56.33
72855;BME280;60991;51.278;22.550;2023-03-29T00:55:06;99351.63;;;0.07;56.31
72855;BME280;60991;51.278;22.550;2023-03-29T00:56:42;99345.91;;;0.11;56.17
72855;BME280;60991;51.278;22.550;2023-03-29T00:58:19;99350.34;;;0.03;56.01
72855;BME280;60991;51.278;22.550;2023-03-29T00:59:51;99352.53;;;-0.17;56.27
72855;BME280;60991;51.278;22.550;2023-03-29T01:01:45;99352.38;;;-0.16;56.68
72855;BME280;60991;51.278;22.550;2023-03-29T01:03:18;99350.91;;;-0.10;56.19
72855;BME280;60991;51.278;22.550;2023-03-29T01:05:06;99355.16;;;-0.17;56.49
72855;BME280;60991;51.278;22.550;2023-03-29T01:06:39;99354.97;;;-0.16;56.52
72855;BME280;60991;51.278;22.550;2023-03-29T01:08:22;99364.75;;;-0.10;56.20
72855;BME280;60991;51.278;22.550;2023-03-29T01:10:01;99359.69;;;-0.03;55.59
72855;BME280;60991;51.278;22.550;2023-03-29T01:11:38;99354.91;;;0.00;55.22
72855;BME280;60991;51.278;22.550;2023-03-29T01:13:18;99353.41;;;0.06;55.09
72855;BME280;60991;51.278;22.550;2023-03-29T01:15:00;99369.06;;;0.14;54.87
72855;BME280;60991;51.278;22.550;2023-03-29T01:16:34;99361.41;;;0.05;54.34
72855;BME280;60991;51.278;22.550;2023-03-29T01:18:05;99360.31;;;-0.01;54.38
72855;BME280;60991;51.278;22.550;2023-03-29T01:19:46;99361.09;;;0.08;54.26
72855;BME280;60991;51.278;22.550;2023-03-29T01:21:32;99360.09;;;0.09;54.15
72855;BME280;60991;51.278;22.550;2023-03-29T01:28:07;99362.81;;;-0.16;54.17
72855;BME280;60991;51.278;22.550;2023-03-29T01:29:44;99363.91;;;-0.02;53.95
72855;BME280;60991;51.278;22.550;2023-03-29T01:31:29;99357.75;;;-0.09;53.81
72855;BME280;60991;51.278;22.550;2023-03-29T01:33:10;99363.34;;;-0.20;54.24
72855;BME280;60991;51.278;22.550;2023-03-29T01:34:54;99356.94;;;-0.18;54.43
72855;BME280;60991;51.278;22.550;2023-03-29T01:36:50;99368.00;;;-0.08;54.33
72855;BME280;60991;51.278;22.550;2023-03-29T01:38:29;99356.38;;;0.03;53.76
72855;BME280;60991;51.278;22.550;2023-03-29T01:40:02;99358.25;;;-0.14;53.70
72855;BME280;60991;51.278;22.550;2023-03-29T01:44:03;99361.66;;;-0.13;53.48
72855;BME280;60991;51.278;22.550;2023-03-29T01:47:12;99356.31;;;-0.20;53.39
72855;BME280;60991;51.278;22.550;2023-03-29T01:52:05;99363.56;;;-0.38;53.73
72855;BME280;60991;51.278;22.550;2023-03-29T01:54:27;99369.41;;;-0.36;53.94
72855;BME280;60991;51.278;22.550;2023-03-29T01:55:40;99370.19;;;-0.19;53.43
72855;BME280;60991;51.278;22.550;2023-03-29T01:57:13;99364.16;;;-0.20;53.63
72855;BME280;60991;51.278;22.550;2023-03-29T01:58:47;99364.34;;;-0.29;53.68
72855;BME280;60991;51.278;22.550;2023-03-29T02:00:22;99368.41;;;-0.27;53.67
72855;BME280;60991;51.278;22.550;2023-03-29T02:01:57;99364.00;;;-0.26;53.13
72855;BME280;60991;51.278;22.550;2023-03-29T02:03:30;99364.16;;;-0.28;53.25
72855;BME280;60991;51.278;22.550;2023-03-29T02:05:01;99358.63;;;-0.25;53.51
72855;BME280;60991;51.278;22.550;2023-03-29T02:06:32;99360.91;;;-0.30;53.60
72855;BME280;60991;51.278;22.550;2023-03-29T02:08:06;99366.44;;;-0.25;53.45
72855;BME280;60991;51.278;22.550;2023-03-29T02:09:38;99363.34;;;-0.20;53.39
72855;BME280;60991;51.278;22.550;2023-03-29T02:11:09;99357.63;;;-0.24;53.69
72855;BME280;60991;51.278;22.550;2023-03-29T02:12:39;99368.56;;;-0.28;53.64
72855;BME280;60991;51.278;22.550;2023-03-29T02:14:09;99363.88;;;-0.41;53.81
72855;BME280;60991;51.278;22.550;2023-03-29T02:15:40;99361.94;;;-0.39;54.31
72855;BME280;60991;51.278;22.550;2023-03-29T02:18:49;99359.75;;;-0.27;53.83
72855;BME280;60991;51.278;22.550;2023-03-29T02:20:26;99361.41;;;-0.35;53.98
72855;BME280;60991;51.278;22.550;2023-03-29T02:22:04;99359.31;;;-0.39;53.96
72855;BME280;60991;51.278;22.550;2023-03-29T02:23:39;99359.50;;;-0.41;54.31
72855;BME280;60991;51.278;22.550;2023-03-29T02:25:12;99361.28;;;-0.49;54.67
72855;BME280;60991;51.278;22.550;2023-03-29T02:26:42;99363.78;;;-0.56;54.49
72855;BME280;60991;51.278;22.550;2023-03-29T02:28:13;99352.38;;;-0.63;54.48
72855;BME280;60991;51.278;22.550;2023-03-29T02:29:43;99356.94;;;-0.57;54.32
72855;BME280;60991;51.278;22.550;2023-03-29T02:32:48;99357.91;;;-0.74;55.04
72855;BME280;60991;51.278;22.550;2023-03-29T02:34:28;99353.53;;;-0.74;55.10
72855;BME280;60991;51.278;22.550;2023-03-29T02:36:05;99357.13;;;-0.75;55.12
72855;BME280;60991;51.278;22.550;2023-03-29T02:37:39;99347.66;;;-0.67;54.83
72855;BME280;60991;51.278;22.550;2023-03-29T02:39:12;99362.34;;;-0.75;55.23
72855;BME280;60991;51.278;22.550;2023-03-29T02:40:44;99356.78;;;-0.63;54.73
72855;BME280;60991;51.278;22.550;2023-03-29T02:42:17;99361.03;;;-0.79;55.33
72855;BME280;60991;51.278;22.550;2023-03-29T02:43:49;99351.28;;;-0.77;55.03
72855;BME280;60991;51.278;22.550;2023-03-29T02:45:20;99354.84;;;-0.78;55.13
72855;BME280;60991;51.278;22.550;2023-03-29T02:46:57;99361.34;;;-0.74;55.28
72855;BME280;60991;51.278;22.550;2023-03-29T02:48:30;99367.03;;;-0.70;55.11
72855;BME280;60991;51.278;22.550;2023-03-29T02:50:01;99366.22;;;-0.71;55.18
72855;BME280;60991;51.278;22.550;2023-03-29T02:51:32;99369.81;;;-0.72;55.21
72855;BME280;60991;51.278;22.550;2023-03-29T02:53:12;99372.41;;;-0.72;55.41
72855;BME280;60991;51.278;22.550;2023-03-29T02:54:46;99370.66;;;-0.79;55.68
72855;BME280;60991;51.278;22.550;2023-03-29T02:56:19;99374.72;;;-0.77;55.27
72855;BME280;60991;51.278;22.550;2023-03-29T02:57:49;99371.31;;;-0.77;55.53
72855;BME280;60991;51.278;22.550;2023-03-29T02:59:19;99374.19;;;-0.72;55.48
72855;BME280;60991;51.278;22.550;2023-03-29T03:00:50;99369.16;;;-0.65;55.14
72855;BME280;60991;51.278;22.550;2023-03-29T03:02:21;99386.44;;;-0.81;55.43
72855;BME280;60991;51.278;22.550;2023-03-29T03:03:51;99372.94;;;-0.76;55.21
72855;BME280;60991;51.278;22.550;2023-03-29T03:05:21;99371.13;;;-0.76;55.36
72855;BME280;60991;51.278;22.550;2023-03-29T03:06:51;99369.34;;;-0.83;55.30
72855;BME280;60991;51.278;22.550;2023-03-29T03:08:22;99376.66;;;-0.87;55.72
72855;BME280;60991;51.278;22.550;2023-03-29T03:09:52;99380.75;;;-0.76;55.26
72855;BME280;60991;51.278;22.550;2023-03-29T03:11:22;99377.50;;;-0.78;55.73
72855;BME280;60991;51.278;22.550;2023-03-29T03:12:52;99375.84;;;-0.79;55.61
72855;BME280;60991;51.278;22.550;2023-03-29T03:14:22;99377.31;;;-0.85;55.65
72855;BME280;60991;51.278;22.550;2023-03-29T03:15:53;99371.28;;;-0.85;55.70
72855;BME280;60991;51.278;22.550;2023-03-29T03:17:23;99370.16;;;-0.75;55.57
72855;BME280;60991;51.278;22.550;2023-03-29T03:18:53;99376.69;;;-0.79;55.44
72855;BME280;60991;51.278;22.550;2023-03-29T03:20:23;99381.06;;;-0.79;55.61
72855;BME280;60991;51.278;22.550;2023-03-29T03:21:54;99383.16;;;-0.66;55.25
72855;BME280;60991;51.278;22.550;2023-03-29T03:23:24;99386.13;;;-0.86;55.46
72855;BME280;60991;51.278;22.550;2023-03-29T03:24:54;99378.63;;;-0.81;55.30
72855;BME280;60991;51.278;22.550;2023-03-29T03:26:24;99384.66;;;-0.80;55.50
72855;BME280;60991;51.278;22.550;2023-03-29T03:27:55;99389.03;;;-0.89;55.97
72855;BME280;60991;51.278;22.550;2023-03-29T03:29:25;99389.69;;;-0.87;55.56
72855;BME280;60991;51.278;22.550;2023-03-29T03:30:55;99387.75;;;-0.85;56.03
72855;BME280;60991;51.278;22.550;2023-03-29T03:32:25;99394.13;;;-0.95;56.02
72855;BME280;60991;51.278;22.550;2023-03-29T03:33:55;99385.00;;;-0.99;56.34
72855;BME280;60991;51.278;22.550;2023-03-29T03:35:26;99388.22;;;-0.89;55.59
72855;BME280;60991;51.278;22.550;2023-03-29T03:36:56;99384.00;;;-0.82;55.60
72855;BME280;60991;51.278;22.550;2023-03-29T03:38:26;99389.88;;;-0.96;56.06
72855;BME280;60991;51.278;22.550;2023-03-29T03:39:56;99388.72;;;-1.02;56.84
72855;BME280;60991;51.278;22.550;2023-03-29T03:41:27;99395.22;;;-0.90;55.94
72855;BME280;60991;51.278;22.550;2023-03-29T03:42:57;99393.94;;;-0.78;55.57
72855;BME280;60991;51.278;22.550;2023-03-29T03:44:27;99398.81;;;-0.75;55.61
72855;BME280;60991;51.278;22.550;2023-03-29T03:45:57;99394.25;;;-0.64;55.45
72855;BME280;60991;51.278;22.550;2023-03-29T03:47:27;99396.69;;;-0.71;55.38
72855;BME280;60991;51.278;22.550;2023-03-29T03:48:58;99386.75;;;-0.67;55.71
72855;BME280;60991;51.278;22.550;2023-03-29T03:50:28;99396.53;;;-0.61;55.08
72855;BME280;60991;51.278;22.550;2023-03-29T03:51:58;99405.03;;;-0.76;55.66
72855;BME280;60991;51.278;22.550;2023-03-29T03:53:28;99399.00;;;-0.76;55.98
72855;BME280;60991;51.278;22.550;2023-03-29T03:54:59;99403.56;;;-0.78;56.07
72855;BME280;60991;51.278;22.550;2023-03-29T03:56:29;99403.38;;;-0.85;56.00
72855;BME280;60991;51.278;22.550;2023-03-29T03:57:59;99401.75;;;-0.78;55.97
72855;BME280;60991;51.278;22.550;2023-03-29T03:59:29;99407.81;;;-0.93;56.29
72855;BME280;60991;51.278;22.550;2023-03-29T04:00:59;99409.75;;;-0.95;56.68
72855;BME280;60991;51.278;22.550;2023-03-29T04:02:29;99407.78;;;-1.01;56.80
72855;BME280;60991;51.278;22.550;2023-03-29T04:04:00;99412.34;;;-0.95;56.27
72855;BME280;60991;51.278;22.550;2023-03-29T04:05:30;99411.84;;;-0.91;56.82
72855;BME280;60991;51.278;22.550;2023-03-29T04:07:00;99408.41;;;-0.91;56.39
72855;BME280;60991;51.278;22.550;2023-03-29T04:08:30;99409.22;;;-0.91;56.52
72855;BME280;60991;51.278;22.550;2023-03-29T04:10:01;99421.97;;;-0.96;56.58
72855;BME280;60991;51.278;22.550;2023-03-29T04:11:31;99414.97;;;-0.95;56.24
72855;BME280;60991;51.278;22.550;2023-03-29T04:13:02;99423.41;;;-1.01;56.67
72855;BME280;60991;51.278;22.550;2023-03-29T04:14:32;99419.66;;;-1.07;57.26
72855;BME280;60991;51.278;22.550;2023-03-29T04:16:02;99417.41;;;-0.94;56.53
72855;BME280;60991;51.278;22.550;2023-03-29T04:17:33;99417.22;;;-1.00;56.86
72855;BME280;60991;51.278;22.550;2023-03-29T04:19:03;99424.38;;;-1.02;56.45
72855;BME280;60991;51.278;22.550;2023-03-29T04:20:33;99423.22;;;-1.08;57.08
72855;BME280;60991;51.278;22.550;2023-03-29T04:22:03;99429.41;;;-1.09;56.91
72855;BME280;60991;51.278;22.550;2023-03-29T04:23:35;99418.69;;;-1.06;56.95
72855;BME280;60991;51.278;22.550;2023-03-29T04:25:05;99430.59;;;-1.12;57.08
72855;BME280;60991;51.278;22.550;2023-03-29T04:26:36;99425.53;;;-1.13;57.28
72855;BME280;60991;51.278;22.550;2023-03-29T04:28:06;99434.97;;;-1.12;57.29
72855;BME280;60991;51.278;22.550;2023-03-29T04:29:36;99424.38;;;-1.11;57.36
72855;BME280;60991;51.278;22.550;2023-03-29T04:31:10;99427.16;;;-1.04;57.49
72855;BME280;60991;51.278;22.550;2023-03-29T04:32:41;99434.31;;;-1.14;57.39
72855;BME280;60991;51.278;22.550;2023-03-29T04:34:11;99430.72;;;-1.21;57.63
72855;BME280;60991;51.278;22.550;2023-03-29T04:35:41;99428.94;;;-1.21;57.76
72855;BME280;60991;51.278;22.550;2023-03-29T04:37:11;99425.53;;;-1.13;57.84
72855;BME280;60991;51.278;22.550;2023-03-29T04:38:42;99430.06;;;-1.07;57.52
72855;BME280;60991;51.278;22.550;2023-03-29T04:40:12;99427.63;;;-1.25;57.92
72855;BME280;60991;51.278;22.550;2023-03-29T04:41:43;99438.03;;;-1.25;58.31
72855;BME280;60991;51.278;22.550;2023-03-29T04:43:14;99430.56;;;-1.20;57.89
72855;BME280;60991;51.278;22.550;2023-03-29T04:44:44;99430.75;;;-1.13;58.31
72855;BME280;60991;51.278;22.550;2023-03-29T04:46:14;99437.91;;;-1.15;58.08
72855;BME280;60991;51.278;22.550;2023-03-29T04:47:44;99437.09;;;-1.16;58.15
72855;BME280;60991;51.278;22.550;2023-03-29T04:49:15;99439.69;;;-0.99;58.01
72855;BME280;60991;51.278;22.550;2023-03-29T04:50:45;99441.66;;;-0.93;57.41
72855;BME280;60991;51.278;22.550;2023-03-29T04:52:16;99441.47;;;-0.92;57.87
72855;BME280;60991;51.278;22.550;2023-03-29T04:53:47;99445.38;;;-1.04;58.25
72855;BME280;60991;51.278;22.550;2023-03-29T04:55:17;99440.81;;;-1.10;58.12
72855;BME280;60991;51.278;22.550;2023-03-29T04:56:48;99446.69;;;-1.16;58.82
72855;BME280;60991;51.278;22.550;2023-03-29T04:58:18;99438.53;;;-1.05;58.39
72855;BME280;60991;51.278;22.550;2023-03-29T04:59:48;99440.19;;;-0.96;58.10
72855;BME280;60991;51.278;22.550;2023-03-29T05:01:18;99446.06;;;-0.94;57.75
72855;BME280;60991;51.278;22.550;2023-03-29T05:02:48;99439.38;;;-1.05;58.67
72855;BME280;60991;51.278;22.550;2023-03-29T05:04:19;99442.94;;;-1.14;58.95
72855;BME280;60991;51.278;22.550;2023-03-29T05:05:49;99447.19;;;-1.05;58.42
72855;BME280;60991;51.278;22.550;2023-03-29T05:07:19;99447.34;;;-1.14;58.66
72855;BME280;60991;51.278;22.550;2023-03-29T05:08:49;99444.09;;;-1.16;58.97
72855;BME280;60991;51.278;22.550;2023-03-29T05:10:20;99449.13;;;-1.15;59.26
72855;BME280;60991;51.278;22.550;2023-03-29T05:11:50;99457.44;;;-1.03;58.89
72855;BME280;60991;51.278;22.550;2023-03-29T05:13:20;99441.97;;;-1.05;58.96
72855;BME280;60991;51.278;22.550;2023-03-29T05:14:51;99448.31;;;-1.07;58.89
72855;BME280;60991;51.278;22.550;2023-03-29T05:16:21;99451.59;;;-0.97;58.71
72855;BME280;60991;51.278;22.550;2023-03-29T05:17:51;99447.03;;;-1.03;58.96
72855;BME280;60991;51.278;22.550;2023-03-29T05:19:21;99458.56;;;-1.06;59.53
72855;BME280;60991;51.278;22.550;2023-03-29T05:20:52;99450.25;;;-1.09;58.88
72855;BME280;60991;51.278;22.550;2023-03-29T05:22:22;99456.13;;;-1.15;59.59
72855;BME280;60991;51.278;22.550;2023-03-29T05:23:53;99460.84;;;-1.11;59.43
72855;BME280;60991;51.278;22.550;2023-03-29T05:25:24;99468.03;;;-0.96;59.31
72855;BME280;60991;51.278;22.550;2023-03-29T05:26:54;99464.47;;;-0.95;59.38
72855;BME280;60991;51.278;22.550;2023-03-29T05:28:24;99458.28;;;-0.94;59.43
72855;BME280;60991;51.278;22.550;2023-03-29T05:29:54;99461.53;;;-0.84;58.96
72855;BME280;60991;51.278;22.550;2023-03-29T05:31:25;99459.41;;;-0.81;59.09
72855;BME280;60991;51.278;22.550;2023-03-29T05:32:55;99470.47;;;-0.87;58.85
72855;BME280;60991;51.278;22.550;2023-03-29T05:34:25;99463.16;;;-0.75;59.16
72855;BME280;60991;51.278;22.550;2023-03-29T05:36:12;99469.69;;;-0.79;59.19
72855;BME280;60991;51.278;22.550;2023-03-29T05:37:43;99466.91;;;-0.78;59.34
72855;BME280;60991;51.278;22.550;2023-03-29T05:39:13;99468.88;;;-0.80;59.70
72855;BME280;60991;51.278;22.550;2023-03-29T05:40:43;99471.28;;;-0.86;59.92
72855;BME280;60991;51.278;22.550;2023-03-29T05:42:13;99474.38;;;-0.91;59.84
72855;BME280;60991;51.278;22.550;2023-03-29T05:43:44;99477.97;;;-0.84;60.15
72855;BME280;60991;51.278;22.550;2023-03-29T05:45:14;99476.19;;;-0.67;59.58
72855;BME280;60991;51.278;22.550;2023-03-29T05:46:44;99478.47;;;-0.56;59.16
72855;BME280;60991;51.278;22.550;2023-03-29T05:48:14;99481.88;;;-0.63;59.36
72855;BME280;60991;51.278;22.550;2023-03-29T05:49:44;99467.56;;;-0.59;59.42
72855;BME280;60991;51.278;22.550;2023-03-29T05:51:15;99478.94;;;-0.44;59.37
72855;BME280;60991;51.278;22.550;2023-03-29T05:52:45;99470.31;;;-0.53;59.43
72855;BME280;60991;51.278;22.550;2023-03-29T05:54:15;99477.66;;;-0.40;59.32
72855;BME280;60991;51.278;22.550;2023-03-29T05:55:45;99471.81;;;-0.58;59.66
72855;BME280;60991;51.278;22.550;2023-03-29T05:57:16;99476.03;;;-0.65;59.96
72855;BME280;60991;51.278;22.550;2023-03-29T05:58:46;99472.63;;;-0.58;59.74
72855;BME280;60991;51.278;22.550;2023-03-29T06:00:16;99477.81;;;-0.58;59.73
72855;BME280;60991;51.278;22.550;2023-03-29T06:01:47;99471.28;;;-0.54;59.62
72855;BME280;60991;51.278;22.550;2023-03-29T06:03:20;99477.81;;;-0.50;60.10
72855;BME280;60991;51.278;22.550;2023-03-29T06:04:50;99475.06;;;-0.56;60.08
72855;BME280;60991;51.278;22.550;2023-03-29T06:06:20;99472.28;;;-0.63;60.36
72855;BME280;60991;51.278;22.550;2023-03-29T06:07:51;99467.41;;;-0.58;60.43
72855;BME280;60991;51.278;22.550;2023-03-29T06:09:21;99473.88;;;-0.54;60.48
72855;BME280;60991;51.278;22.550;2023-03-29T06:10:56;99465.59;;;-0.57;59.51
72855;BME280;60991;51.278;22.550;2023-03-29T06:12:27;99459.88;;;-0.53;59.82
72855;BME280;60991;51.278;22.550;2023-03-29T06:13:57;99465.94;;;-0.60;60.05
72855;BME280;60991;51.278;22.550;2023-03-29T06:15:27;99470.81;;;-0.65;60.65
72855;BME280;60991;51.278;22.550;2023-03-29T06:16:58;99471.16;;;-0.60;60.71
72855;BME280;60991;51.278;22.550;2023-03-29T06:18:28;99469.50;;;-0.61;61.01
72855;BME280;60991;51.278;22.550;2023-03-29T06:19:59;99472.75;;;-0.51;60.64
72855;BME280;60991;51.278;22.550;2023-03-29T06:21:29;99481.41;;;-0.43;60.54
72855;BME280;60991;51.278;22.550;2023-03-29T06:23:00;99473.91;;;-0.38;60.71
72855;BME280;60991;51.278;22.550;2023-03-29T06:24:30;99476.03;;;-0.41;60.66
72855;BME280;60991;51.278;22.550;2023-03-29T06:26:00;99478.31;;;-0.46;60.68
72855;BME280;60991;51.278;22.550;2023-03-29T06:27:31;99481.56;;;-0.44;60.84
72855;BME280;60991;51.278;22.550;2023-03-29T06:29:01;99477.47;;;-0.22;60.42
72855;BME280;60991;51.278;22.550;2023-03-29T06:30:31;99469.75;;;-0.16;60.37
72855;BME280;60991;51.278;22.550;2023-03-29T06:32:01;99478.72;;;-0.10;60.35
72855;BME280;60991;51.278;22.550;2023-03-29T06:33:31;99480.19;;;-0.08;59.99
72855;BME280;60991;51.278;22.550;2023-03-29T06:35:02;99476.94;;;-0.10;60.12
72855;BME280;60991;51.278;22.550;2023-03-29T06:36:32;99486.06;;;-0.06;59.97
72855;BME280;60991;51.278;22.550;2023-03-29T06:38:03;99490.59;;;0.00;59.95
72855;BME280;60991;51.278;22.550;2023-03-29T06:39:33;99491.06;;;0.12;59.86
72855;BME280;60991;51.278;22.550;2023-03-29T06:41:07;99495.09;;;0.23;59.45
72855;BME280;60991;51.278;22.550;2023-03-29T06:42:38;99489.44;;;0.11;59.92
72855;BME280;60991;51.278;22.550;2023-03-29T06:44:08;99490.59;;;0.09;59.51
72855;BME280;60991;51.278;22.550;2023-03-29T06:45:39;99492.22;;;0.10;59.96
72855;BME280;60991;51.278;22.550;2023-03-29T06:47:09;99498.41;;;0.09;59.35
72855;BME280;60991;51.278;22.550;2023-03-29T06:48:39;99500.22;;;0.08;60.14
72855;BME280;60991;51.278;22.550;2023-03-29T06:50:09;99495.44;;;0.20;59.58
72855;BME280;60991;51.278;22.550;2023-03-29T06:51:40;99497.19;;;0.36;59.27
72855;BME280;60991;51.278;22.550;2023-03-29T06:53:10;99493.13;;;0.33;59.20
72855;BME280;60991;51.278;22.550;2023-03-29T06:54:40;99502.75;;;0.32;59.33
72855;BME280;60991;51.278;22.550;2023-03-29T06:56:10;99495.56;;;0.34;59.20
72855;BME280;60991;51.278;22.550;2023-03-29T06:57:41;99503.84;;;0.38;59.70
72855;BME280;60991;51.278;22.550;2023-03-29T06:59:11;99507.34;;;0.30;59.46
72855;BME280;60991;51.278;22.550;2023-03-29T07:00:41;99502.59;;;0.34;59.92
72855;BME280;60991;51.278;22.550;2023-03-29T07:02:12;99500.75;;;0.43;59.62
72855;BME280;60991;51.278;22.550;2023-03-29T07:03:42;99508.91;;;0.48;59.22
72855;BME280;60991;51.278;22.550;2023-03-29T07:05:12;99506.78;;;0.43;59.62
72855;BME280;60991;51.278;22.550;2023-03-29T07:06:43;99508.41;;;0.52;59.12
72855;BME280;60991;51.278;22.550;2023-03-29T07:08:13;99513.94;;;0.49;59.21
72855;BME280;60991;51.278;22.550;2023-03-29T07:09:43;99509.50;;;0.58;59.18
72855;BME280;60991;51.278;22.550;2023-03-29T07:11:14;99514.47;;;0.76;59.36
72855;BME280;60991;51.278;22.550;2023-03-29T07:12:44;99515.72;;;0.88;58.84
72855;BME280;60991;51.278;22.550;2023-03-29T07:14:15;99517.28;;;0.97;58.66
72855;BME280;60991;51.278;22.550;2023-03-29T07:15:45;99511.44;;;0.95;58.04
72855;BME280;60991;51.278;22.550;2023-03-29T07:17:15;99516.88;;;0.85;57.66
72855;BME280;60991;51.278;22.550;2023-03-29T07:18:45;99521.84;;;0.72;58.09
72855;BME280;60991;51.278;22.550;2023-03-29T07:20:16;99516.50;;;0.65;58.57
72855;BME280;60991;51.278;22.550;2023-03-29T07:21:46;99522.94;;;0.78;58.16
72855;BME280;60991;51.278;22.550;2023-03-29T07:23:16;99515.75;;;0.80;57.86
72855;BME280;60991;51.278;22.550;2023-03-29T07:24:46;99518.03;;;0.83;57.94
72855;BME280;60991;51.278;22.550;2023-03-29T07:26:16;99516.00;;;0.93;57.78
72855;BME280;60991;51.278;22.550;2023-03-29T07:27:47;99508.25;;;1.08;57.81
72855;BME280;60991;51.278;22.550;2023-03-29T07:29:17;99525.31;;;0.95;57.34
72855;BME280;60991;51.278;22.550;2023-03-29T07:30:48;99517.69;;;0.86;57.36
72855;BME280;60991;51.278;22.550;2023-03-29T07:32:18;99525.19;;;0.89;57.36
72855;BME280;60991;51.278;22.550;2023-03-29T07:33:48;99523.41;;;0.89;56.96
72855;BME280;60991;51.278;22.550;2023-03-29T07:35:20;99514.09;;;0.87;57.21
72855;BME280;60991;51.278;22.550;2023-03-29T07:36:50;99518.59;;;1.01;56.62
72855;BME280;60991;51.278;22.550;2023-03-29T07:38:20;99522.19;;;1.00;56.73
72855;BME280;60991;51.278;22.550;2023-03-29T07:39:51;99522.19;;;1.00;56.78
72855;BME280;60991;51.278;22.550;2023-03-29T07:41:21;99517.09;;;1.07;56.72
72855;BME280;60991;51.278;22.550;2023-03-29T07:42:53;99516.34;;;1.21;55.94
72855;BME280;60991;51.278;22.550;2023-03-29T07:44:23;99526.63;;;1.22;55.85
72855;BME280;60991;51.278;22.550;2023-03-29T07:45:53;99529.97;;;1.31;56.54
72855;BME280;60991;51.278;22.550;2023-03-29T07:47:24;99517.94;;;1.30;56.12
72855;BME280;60991;51.278;22.550;2023-03-29T07:48:54;99531.78;;;1.30;55.87
72855;BME280;60991;51.278;22.550;2023-03-29T07:50:25;99531.34;;;1.27;55.40
72855;BME280;60991;51.278;22.550;2023-03-29T07:51:55;99522.84;;;1.25;55.57
72855;BME280;60991;51.278;22.550;2023-03-29T07:53:25;99532.91;;;1.36;56.00
72855;BME280;60991;51.278;22.550;2023-03-29T07:54:56;99530.44;;;1.34;56.13
72855;BME280;60991;51.278;22.550;2023-03-29T07:56:26;99531.41;;;1.42;56.19
72855;BME280;60991;51.278;22.550;2023-03-29T07:57:56;99526.00;;;1.43;55.92
72855;BME280;60991;51.278;22.550;2023-03-29T07:59:26;99528.91;;;1.48;55.65
72855;BME280;60991;51.278;22.550;2023-03-29T08:00:58;99526.50;;;1.61;56.07
72855;BME280;60991;51.278;22.550;2023-03-29T08:02:28;99528.22;;;1.69;55.94
72855;BME280;60991;51.278;22.550;2023-03-29T08:03:58;99530.25;;;1.82;55.47
72855;BME280;60991;51.278;22.550;2023-03-29T08:05:28;99536.72;;;1.86;54.64
72855;BME280;60991;51.278;22.550;2023-03-29T08:06:58;99536.47;;;1.81;53.56
72855;BME280;60991;51.278;22.550;2023-03-29T08:08:29;99530.94;;;1.76;53.63
72855;BME280;60991;51.278;22.550;2023-03-29T08:09:59;99527.53;;;1.75;53.46
72855;BME280;60991;51.278;22.550;2023-03-29T08:11:29;99527.88;;;1.72;53.53
72855;BME280;60991;51.278;22.550;2023-03-29T08:13:03;99526.88;;;1.73;53.36
72855;BME280;60991;51.278;22.550;2023-03-29T08:14:33;99524.44;;;1.71;53.80
72855;BME280;60991;51.278;22.550;2023-03-29T08:16:04;99539.63;;;1.76;53.51
72855;BME280;60991;51.278;22.550;2023-03-29T08:17:35;99534.22;;;1.78;53.89